Terminal Aerodrome Forecast
Issued by NWS Wilmington, NC

Current Version | Previous Version | Text Only | Print | Product List | Glossary On
Versions: 1 2 3 4 5 6 7 8 9 10 11 12 13 14 15 16 17 18 19
000
FTUS42 KILM 022320
TAFLBT
TAF
KLBT 022320Z 0300/0324 VRB05KT P6SM SCT050 SCT250
     FM030100 21003KT P6SM BKN080
     FM030700 28002KT 5SM BR VCSH SCT040
      TEMPO 0309/0311 3SM BR
     FM031300 32005KT P6SM SCT080 SCT250=

USA.gov is the U.S. government's official web portal to all federal, state and local government web resources and services.